sensor_id;sensor_type;location;lat;lon;timestamp;temperature;humidity
74822;DHT22;63353;48.702;8.884;2023-08-24T00:00:45;16.90;99.90
74822;DHT22;63353;48.702;8.884;2023-08-24T00:03:11;17.00;99.90
74822;DHT22;63353;48.702;8.884;2023-08-24T00:05:49;17.00;99.90
74822;DHT22;63353;48.702;8.884;2023-08-24T00:08:18;17.00;99.90
74822;DHT22;63353;48.702;8.884;2023-08-24T00:10:50;17.00;99.90
74822;DHT22;63353;48.702;8.884;2023-08-24T00:13:16;17.00;99.90
74822;DHT22;63353;48.702;8.884;2023-08-24T00:15:47;17.00;99.90
74822;DHT22;63353;48.702;8.884;2023-08-24T00:18:13;16.90;99.90
74822;DHT22;63353;48.702;8.884;2023-08-24T00:20:45;16.90;99.90
74822;DHT22;63353;48.702;8.884;2023-08-24T00:23:16;16.80;99.90
74822;DHT22;63353;48.702;8.884;2023-08-24T00:25:45;16.80;99.90
74822;DHT22;63353;48.702;8.884;2023-08-24T00:28:11;16.70;99.90
74822;DHT22;63353;48.702;8.884;2023-08-24T00:30:49;16.70;99.90
74822;DHT22;63353;48.702;8.884;2023-08-24T00:33:33;16.70;99.90
74822;DHT22;63353;48.702;8.884;2023-08-24T00:36:02;16.70;99.90
74822;DHT22;63353;48.702;8.884;2023-08-24T00:38:28;16.60;99.90
74822;DHT22;63353;48.702;8.884;2023-08-24T00:40:57;16.60;99.90
74822;DHT22;63353;48.702;8.884;2023-08-24T00:43:27;16.60;99.90
74822;DHT22;63353;48.702;8.884;2023-08-24T00:45:55;16.50;99.90
74822;DHT22;63353;48.702;8.884;2023-08-24T00:48:22;16.50;99.90
74822;DHT22;63353;48.702;8.884;2023-08-24T00:51:03;16.50;99.90
74822;DHT22;63353;48.702;8.884;2023-08-24T00:53:31;16.50;99.90
74822;DHT22;63353;48.702;8.884;2023-08-24T00:55:57;16.40;99.90
74822;DHT22;63353;48.702;8.884;2023-08-24T00:58:23;16.40;99.90
74822;DHT22;63353;48.702;8.884;2023-08-24T01:00:51;16.40;99.90
74822;DHT22;63353;48.702;8.884;2023-08-24T01:03:24;16.30;99.90
74822;DHT22;63353;48.702;8.884;2023-08-24T01:05:50;16.30;99.90
74822;DHT22;63353;48.702;8.884;2023-08-24T01:08:17;16.30;99.90
74822;DHT22;63353;48.702;8.884;2023-08-24T01:16:18;16.20;99.90
74822;DHT22;63353;48.702;8.884;2023-08-24T01:18:51;16.20;99.90
74822;DHT22;63353;48.702;8.884;2023-08-24T01:21:17;16.20;99.90
74822;DHT22;63353;48.702;8.884;2023-08-24T01:24:02;16.10;99.90
74822;DHT22;63353;48.702;8.884;2023-08-24T01:26:29;16.20;99.90
74822;DHT22;63353;48.702;8.884;2023-08-24T01:28:55;16.10;99.90
74822;DHT22;63353;48.702;8.884;2023-08-24T01:31:21;16.10;99.90
74822;DHT22;63353;48.702;8.884;2023-08-24T01:33:50;16.00;99.90
74822;DHT22;63353;48.702;8.884;2023-08-24T01:36:15;16.00;99.90
74822;DHT22;63353;48.702;8.884;2023-08-24T01:39:17;16.00;99.90
74822;DHT22;63353;48.702;8.884;2023-08-24T01:41:46;15.90;99.90
74822;DHT22;63353;48.702;8.884;2023-08-24T01:44:18;15.90;99.90
74822;DHT22;63353;48.702;8.884;2023-08-24T01:46:49;15.90;99.90
74822;DHT22;63353;48.702;8.884;2023-08-24T01:49:17;15.80;99.90
74822;DHT22;63353;48.702;8.884;2023-08-24T01:51:44;15.80;99.90
74822;DHT22;63353;48.702;8.884;2023-08-24T01:54:11;15.80;99.90
74822;DHT22;63353;48.702;8.884;2023-08-24T01:56:40;15.80;99.90
74822;DHT22;63353;48.702;8.884;2023-08-24T01:59:08;15.80;99.90
74822;DHT22;63353;48.702;8.884;2023-08-24T02:01:37;15.80;99.90
74822;DHT22;63353;48.702;8.884;2023-08-24T02:04:06;15.90;99.90
74822;DHT22;63353;48.702;8.884;2023-08-24T02:06:31;15.80;99.90
74822;DHT22;63353;48.702;8.884;2023-08-24T02:09:03;15.80;99.90
74822;DHT22;63353;48.702;8.884;2023-08-24T02:11:29;15.80;99.90
74822;DHT22;63353;48.702;8.884;2023-08-24T02:14:00;15.80;99.90
74822;DHT22;63353;48.702;8.884;2023-08-24T02:16:26;15.80;99.90
74822;DHT22;63353;48.702;8.884;2023-08-24T02:19:01;15.80;99.90
74822;DHT22;63353;48.702;8.884;2023-08-24T02:21:29;15.80;99.90
74822;DHT22;63353;48.702;8.884;2023-08-24T02:24:01;15.90;99.90
74822;DHT22;63353;48.702;8.884;2023-08-24T02:26:30;16.00;99.90
74822;DHT22;63353;48.702;8.884;2023-08-24T02:29:01;16.00;99.90
74822;DHT22;63353;48.702;8.884;2023-08-24T02:31:30;16.00;99.90
74822;DHT22;63353;48.702;8.884;2023-08-24T02:33:56;16.10;99.90
74822;DHT22;63353;48.702;8.884;2023-08-24T02:36:24;16.10;99.90
74822;DHT22;63353;48.702;8.884;2023-08-24T02:38:50;16.10;99.90
74822;DHT22;63353;48.702;8.884;2023-08-24T02:41:16;16.10;99.90
74822;DHT22;63353;48.702;8.884;2023-08-24T02:43:44;16.10;99.90
74822;DHT22;63353;48.702;8.884;2023-08-24T02:46:12;16.10;99.90
74822;DHT22;63353;48.702;8.884;2023-08-24T02:48:44;16.10;99.90
74822;DHT22;63353;48.702;8.884;2023-08-24T02:51:14;16.20;99.90
74822;DHT22;63353;48.702;8.884;2023-08-24T02:53:42;16.20;99.90
74822;DHT22;63353;48.702;8.884;2023-08-24T02:56:15;16.20;99.90
74822;DHT22;63353;48.702;8.884;2023-08-24T02:58:40;16.20;99.90
74822;DHT22;63353;48.702;8.884;2023-08-24T03:01:07;16.30;99.90
74822;DHT22;63353;48.702;8.884;2023-08-24T03:03:35;16.30;99.90
74822;DHT22;63353;48.702;8.884;2023-08-24T03:06:09;16.30;99.90
74822;DHT22;63353;48.702;8.884;2023-08-24T03:08:35;16.30;99.90
74822;DHT22;63353;48.702;8.884;2023-08-24T03:11:02;16.20;99.90
74822;DHT22;63353;48.702;8.884;2023-08-24T03:13:29;16.30;99.90
74822;DHT22;63353;48.702;8.884;2023-08-24T03:15:56;16.20;99.90
74822;DHT22;63353;48.702;8.884;2023-08-24T03:18:21;16.20;99.90
74822;DHT22;63353;48.702;8.884;2023-08-24T03:20:55;16.10;99.90
74822;DHT22;63353;48.702;8.884;2023-08-24T03:23:20;16.00;99.90
74822;DHT22;63353;48.702;8.884;2023-08-24T03:25:46;16.00;99.90
74822;DHT22;63353;48.702;8.884;2023-08-24T03:28:12;16.00;99.90
74822;DHT22;63353;48.702;8.884;2023-08-24T03:30:40;16.00;99.90
74822;DHT22;63353;48.702;8.884;2023-08-24T03:33:10;16.00;99.90
74822;DHT22;63353;48.702;8.884;2023-08-24T03:35:36;16.00;99.90
74822;DHT22;63353;48.702;8.884;2023-08-24T03:38:01;16.00;99.90
74822;DHT22;63353;48.702;8.884;2023-08-24T03:40:34;16.00;99.90
74822;DHT22;63353;48.702;8.884;2023-08-24T03:43:02;16.00;99.90
74822;DHT22;63353;48.702;8.884;2023-08-24T03:45:28;16.00;99.90
74822;DHT22;63353;48.702;8.884;2023-08-24T03:47:54;16.00;99.90
74822;DHT22;63353;48.702;8.884;2023-08-24T03:50:23;16.00;99.90
74822;DHT22;63353;48.702;8.884;2023-08-24T03:52:50;16.00;99.90
74822;DHT22;63353;48.702;8.884;2023-08-24T03:55:16;16.00;99.90
74822;DHT22;63353;48.702;8.884;2023-08-24T03:57:45;16.00;99.90
74822;DHT22;63353;48.702;8.884;2023-08-24T04:00:11;16.00;99.90
74822;DHT22;63353;48.702;8.884;2023-08-24T04:02:46;16.00;99.90
74822;DHT22;63353;48.702;8.884;2023-08-24T04:05:12;16.00;99.90
74822;DHT22;63353;48.702;8.884;2023-08-24T04:07:38;16.10;99.90
74822;DHT22;63353;48.702;8.884;2023-08-24T04:10:05;16.10;99.90
74822;DHT22;63353;48.702;8.884;2023-08-24T04:12:32;16.10;99.90
74822;DHT22;63353;48.702;8.884;2023-08-24T04:14:58;16.10;99.90
74822;DHT22;63353;48.702;8.884;2023-08-24T04:17:24;16.10;99.90
74822;DHT22;63353;48.702;8.884;2023-08-24T04:19:50;16.10;99.90
74822;DHT22;63353;48.702;8.884;2023-08-24T04:22:15;16.10;99.90
74822;DHT22;63353;48.702;8.884;2023-08-24T04:24:41;16.00;99.90
74822;DHT22;63353;48.702;8.884;2023-08-24T04:27:07;16.00;99.90
74822;DHT22;63353;48.702;8.884;2023-08-24T04:29:33;16.00;99.90
74822;DHT22;63353;48.702;8.884;2023-08-24T04:32:01;16.00;99.90
74822;DHT22;63353;48.702;8.884;2023-08-24T04:34:27;16.00;99.90
74822;DHT22;63353;48.702;8.884;2023-08-24T04:36:52;16.00;99.90
74822;DHT22;63353;48.702;8.884;2023-08-24T04:39:20;16.00;99.90
74822;DHT22;63353;48.702;8.884;2023-08-24T04:41:45;16.00;99.90
74822;DHT22;63353;48.702;8.884;2023-08-24T04:44:11;16.00;99.90
74822;DHT22;63353;48.702;8.884;2023-08-24T04:46:36;16.00;99.90
74822;DHT22;63353;48.702;8.884;2023-08-24T04:49:02;16.00;99.90
74822;DHT22;63353;48.702;8.884;2023-08-24T04:51:28;16.00;99.90
74822;DHT22;63353;48.702;8.884;2023-08-24T04:53:54;16.10;99.90
74822;DHT22;63353;48.702;8.884;2023-08-24T04:56:20;16.10;99.90
74822;DHT22;63353;48.702;8.884;2023-08-24T04:58:55;16.20;99.90
74822;DHT22;63353;48.702;8.884;2023-08-24T05:01:23;16.20;99.90
74822;DHT22;63353;48.702;8.884;2023-08-24T05:03:48;16.30;99.90
74822;DHT22;63353;48.702;8.884;2023-08-24T05:06:14;16.30;99.90
74822;DHT22;63353;48.702;8.884;2023-08-24T05:08:40;16.40;99.90
74822;DHT22;63353;48.702;8.884;2023-08-24T05:11:13;16.40;99.90
74822;DHT22;63353;48.702;8.884;2023-08-24T05:13:43;16.50;99.90
74822;DHT22;63353;48.702;8.884;2023-08-24T05:16:12;16.60;99.90
74822;DHT22;63353;48.702;8.884;2023-08-24T05:18:38;16.60;99.90
74822;DHT22;63353;48.702;8.884;2023-08-24T05:21:04;16.70;99.90
74822;DHT22;63353;48.702;8.884;2023-08-24T05:23:33;16.80;99.90
74822;DHT22;63353;48.702;8.884;2023-08-24T05:26:00;16.90;99.90
74822;DHT22;63353;48.702;8.884;2023-08-24T05:28:27;16.90;99.90
74822;DHT22;63353;48.702;8.884;2023-08-24T05:30:53;17.00;99.90
74822;DHT22;63353;48.702;8.884;2023-08-24T05:33:20;17.10;99.90
74822;DHT22;63353;48.702;8.884;2023-08-24T05:35:47;17.30;99.90
74822;DHT22;63353;48.702;8.884;2023-08-24T05:38:13;17.40;99.90
74822;DHT22;63353;48.702;8.884;2023-08-24T05:40:39;17.50;99.90
74822;DHT22;63353;48.702;8.884;2023-08-24T05:43:05;17.70;99.90
74822;DHT22;63353;48.702;8.884;2023-08-24T05:45:31;17.80;99.90
74822;DHT22;63353;48.702;8.884;2023-08-24T05:47:57;17.90;99.90
74822;DHT22;63353;48.702;8.884;2023-08-24T05:50:22;18.10;99.90
74822;DHT22;63353;48.702;8.884;2023-08-24T05:52:48;18.20;99.90
74822;DHT22;63353;48.702;8.884;2023-08-24T05:55:14;18.40;99.90
74822;DHT22;63353;48.702;8.884;2023-08-24T05:57:39;18.50;99.90
74822;DHT22;63353;48.702;8.884;2023-08-24T06:00:05;18.50;99.90
74822;DHT22;63353;48.702;8.884;2023-08-24T06:02:39;18.60;99.90
74822;DHT22;63353;48.702;8.884;2023-08-24T06:05:06;18.60;99.90
74822;DHT22;63353;48.702;8.884;2023-08-24T06:07:32;18.70;99.90
74822;DHT22;63353;48.702;8.884;2023-08-24T06:09:58;18.70;99.90
74822;DHT22;63353;48.702;8.884;2023-08-24T06:12:24;18.80;99.90
74822;DHT22;63353;48.702;8.884;2023-08-24T06:14:49;18.90;99.90
74822;DHT22;63353;48.702;8.884;2023-08-24T06:17:15;18.90;99.90
74822;DHT22;63353;48.702;8.884;2023-08-24T06:19:40;19.00;99.90
74822;DHT22;63353;48.702;8.884;2023-08-24T06:22:06;19.00;99.90
74822;DHT22;63353;48.702;8.884;2023-08-24T06:24:32;19.10;99.90
74822;DHT22;63353;48.702;8.884;2023-08-24T06:26:58;19.10;99.90
74822;DHT22;63353;48.702;8.884;2023-08-24T06:29:23;19.10;99.90
74822;DHT22;63353;48.702;8.884;2023-08-24T06:31:49;19.10;99.90
74822;DHT22;63353;48.702;8.884;2023-08-24T06:34:15;19.20;99.90
74822;DHT22;63353;48.702;8.884;2023-08-24T06:36:40;19.20;99.90
74822;DHT22;63353;48.702;8.884;2023-08-24T06:39:06;19.20;99.90
74822;DHT22;63353;48.702;8.884;2023-08-24T06:41:35;19.30;99.90
74822;DHT22;63353;48.702;8.884;2023-08-24T06:44:01;19.30;99.90
74822;DHT22;63353;48.702;8.884;2023-08-24T06:46:27;19.40;99.90
74822;DHT22;63353;48.702;8.884;2023-08-24T06:48:53;19.50;99.90
74822;DHT22;63353;48.702;8.884;2023-08-24T06:51:21;19.60;99.90
74822;DHT22;63353;48.702;8.884;2023-08-24T06:53:47;19.80;99.90
74822;DHT22;63353;48.702;8.884;2023-08-24T06:56:14;20.00;99.90
74822;DHT22;63353;48.702;8.884;2023-08-24T06:58:48;20.20;99.90
74822;DHT22;63353;48.702;8.884;2023-08-24T07:01:14;20.40;99.90
74822;DHT22;63353;48.702;8.884;2023-08-24T07:03:39;20.50;99.90
74822;DHT22;63353;48.702;8.884;2023-08-24T07:06:06;20.70;99.90
74822;DHT22;63353;48.702;8.884;2023-08-24T07:08:33;20.80;99.90
74822;DHT22;63353;48.702;8.884;2023-08-24T07:10:58;20.90;99.90
74822;DHT22;63353;48.702;8.884;2023-08-24T07:13:24;21.00;99.90
74822;DHT22;63353;48.702;8.884;2023-08-24T07:15:50;21.10;99.90
74822;DHT22;63353;48.702;8.884;2023-08-24T07:18:16;21.20;99.90
74822;DHT22;63353;48.702;8.884;2023-08-24T07:20:45;21.30;99.90
74822;DHT22;63353;48.702;8.884;2023-08-24T07:23:10;21.50;99.90
74822;DHT22;63353;48.702;8.884;2023-08-24T07:25:36;21.70;99.90
74822;DHT22;63353;48.702;8.884;2023-08-24T07:28:02;21.90;99.90
74822;DHT22;63353;48.702;8.884;2023-08-24T07:30:28;22.20;99.90
74822;DHT22;63353;48.702;8.884;2023-08-24T07:32:54;22.50;99.90
74822;DHT22;63353;48.702;8.884;2023-08-24T07:35:20;22.80;99.90
74822;DHT22;63353;48.702;8.884;2023-08-24T07:37:50;23.00;99.90
74822;DHT22;63353;48.702;8.884;2023-08-24T07:40:16;23.20;99.90
74822;DHT22;63353;48.702;8.884;2023-08-24T07:42:45;23.40;99.90
74822;DHT22;63353;48.702;8.884;2023-08-24T07:45:11;23.70;99.90
74822;DHT22;63353;48.702;8.884;2023-08-24T07:47:37;24.00;99.90
74822;DHT22;63353;48.702;8.884;2023-08-24T07:50:03;24.20;99.90
74822;DHT22;63353;48.702;8.884;2023-08-24T07:52:29;24.30;99.90
74822;DHT22;63353;48.702;8.884;2023-08-24T07:54:58;24.30;99.90
74822;DHT22;63353;48.702;8.884;2023-08-24T07:57:25;24.50;99.90
74822;DHT22;63353;48.702;8.884;2023-08-24T07:59:54;24.60;99.90
74822;DHT22;63353;48.702;8.884;2023-08-24T08:02:19;24.60;99.90
74822;DHT22;63353;48.702;8.884;2023-08-24T08:04:46;24.80;99.90
74822;DHT22;63353;48.702;8.884;2023-08-24T08:07:11;25.00;99.90
74822;DHT22;63353;48.702;8.884;2023-08-24T08:09:38;25.10;99.90
74822;DHT22;63353;48.702;8.884;2023-08-24T08:12:03;25.10;99.90
74822;DHT22;63353;48.702;8.884;2023-08-24T08:14:29;25.30;99.90
74822;DHT22;63353;48.702;8.884;2023-08-24T08:16:56;25.60;99.90
74822;DHT22;63353;48.702;8.884;2023-08-24T08:19:24;25.90;99.90
74822;DHT22;63353;48.702;8.884;2023-08-24T08:21:52;26.20;99.90
74822;DHT22;63353;48.702;8.884;2023-08-24T08:24:18;26.50;99.90
74822;DHT22;63353;48.702;8.884;2023-08-24T08:26:43;26.70;99.90
74822;DHT22;63353;48.702;8.884;2023-08-24T08:29:09;26.90;99.90
74822;DHT22;63353;48.702;8.884;2023-08-24T08:31:34;27.10;99.90
74822;DHT22;63353;48.702;8.884;2023-08-24T08:34:01;27.40;99.90
74822;DHT22;63353;48.702;8.884;2023-08-24T08:36:26;27.30;99.90
74822;DHT22;63353;48.702;8.884;2023-08-24T08:38:52;27.40;99.90
74822;DHT22;63353;48.702;8.884;2023-08-24T08:41:22;27.60;99.90
74822;DHT22;63353;48.702;8.884;2023-08-24T08:43:50;27.90;99.90
74822;DHT22;63353;48.702;8.884;2023-08-24T08:46:18;28.00;99.90
74822;DHT22;63353;48.702;8.884;2023-08-24T08:48:48;27.80;99.90
74822;DHT22;63353;48.702;8.884;2023-08-24T08:51:16;27.80;99.90
74822;DHT22;63353;48.702;8.884;2023-08-24T08:53:43;28.10;99.90
74822;DHT22;63353;48.702;8.884;2023-08-24T08:56:09;28.30;99.90
74822;DHT22;63353;48.702;8.884;2023-08-24T08:58:35;28.10;99.90
74822;DHT22;63353;48.702;8.884;2023-08-24T09:01:03;28.40;99.90
74822;DHT22;63353;48.702;8.884;2023-08-24T09:03:31;28.40;99.90
74822;DHT22;63353;48.702;8.884;2023-08-24T09:05:57;28.70;99.90
74822;DHT22;63353;48.702;8.884;2023-08-24T09:08:25;28.80;99.90
74822;DHT22;63353;48.702;8.884;2023-08-24T09:10:51;28.90;99.90
74822;DHT22;63353;48.702;8.884;2023-08-24T09:13:17;29.30;99.90
74822;DHT22;63353;48.702;8.884;2023-08-24T09:15:46;29.50;99.90
74822;DHT22;63353;48.702;8.884;2023-08-24T09:18:12;29.50;99.90
74822;DHT22;63353;48.702;8.884;2023-08-24T09:20:37;29.70;99.90
74822;DHT22;63353;48.702;8.884;2023-08-24T09:23:17;29.60;99.90
74822;DHT22;63353;48.702;8.884;2023-08-24T09:25:46;29.90;99.90
74822;DHT22;63353;48.702;8.884;2023-08-24T09:28:12;30.10;99.90
74822;DHT22;63353;48.702;8.884;2023-08-24T09:30:38;30.40;99.90
74822;DHT22;63353;48.702;8.884;2023-08-24T09:33:09;30.70;99.90
74822;DHT22;63353;48.702;8.884;2023-08-24T09:35:36;30.80;99.90
74822;DHT22;63353;48.702;8.884;2023-08-24T09:38:16;31.10;99.90
74822;DHT22;63353;48.702;8.884;2023-08-24T09:40:45;31.20;99.90
74822;DHT22;63353;48.702;8.884;2023-08-24T09:43:13;31.40;99.90
74822;DHT22;63353;48.702;8.884;2023-08-24T09:45:50;31.50;99.90
74822;DHT22;63353;48.702;8.884;2023-08-24T09:48:16;31.10;99.90
74822;DHT22;63353;48.702;8.884;2023-08-24T09:50:45;31.20;99.90
74822;DHT22;63353;48.702;8.884;2023-08-24T09:56:19;31.50;99.90
74822;DHT22;63353;48.702;8.884;2023-08-24T09:58:46;31.80;99.90
74822;DHT22;63353;48.702;8.884;2023-08-24T10:01:13;32.00;99.90
74822;DHT22;63353;48.702;8.884;2023-08-24T10:03:40;32.30;99.90
74822;DHT22;63353;48.702;8.884;2023-08-24T10:06:09;32.40;99.90
74822;DHT22;63353;48.702;8.884;2023-08-24T10:08:37;32.50;99.90
74822;DHT22;63353;48.702;8.884;2023-08-24T10:11:06;32.40;99.90
74822;DHT22;63353;48.702;8.884;2023-08-24T10:13:57;32.60;99.90
74822;DHT22;63353;48.702;8.884;2023-08-24T10:16:24;32.80;99.90
74822;DHT22;63353;48.702;8.884;2023-08-24T10:18:52;32.90;99.90
74822;DHT22;63353;48.702;8.884;2023-08-24T10:21:18;33.10;99.90
74822;DHT22;63353;48.702;8.884;2023-08-24T10:23:45;33.10;99.90
74822;DHT22;63353;48.702;8.884;2023-08-24T10:26:12;33.10;99.90
74822;DHT22;63353;48.702;8.884;2023-08-24T10:28:39;33.40;99.90
74822;DHT22;63353;48.702;8.884;2023-08-24T10:31:05;33.40;99.90
74822;DHT22;63353;48.702;8.884;2023-08-24T10:33:32;33.40;99.90
74822;DHT22;63353;48.702;8.884;2023-08-24T10:35:59;33.60;99.90
74822;DHT22;63353;48.702;8.884;2023-08-24T10:38:29;33.70;99.90
74822;DHT22;63353;48.702;8.884;2023-08-24T10:41:02;33.90;99.90
74822;DHT22;63353;48.702;8.884;2023-08-24T10:43:37;33.70;99.90
74822;DHT22;63353;48.702;8.884;2023-08-24T10:46:03;33.40;99.90
74822;DHT22;63353;48.702;8.884;2023-08-24T10:53:47;33.60;99.90
74822;DHT22;63353;48.702;8.884;2023-08-24T10:56:17;33.70;99.90
74822;DHT22;63353;48.702;8.884;2023-08-24T10:58:44;33.80;99.90
74822;DHT22;63353;48.702;8.884;2023-08-24T11:01:20;33.60;99.90
74822;DHT22;63353;48.702;8.884;2023-08-24T11:03:50;33.90;99.90
74822;DHT22;63353;48.702;8.884;2023-08-24T11:06:24;34.20;99.90
74822;DHT22;63353;48.702;8.884;2023-08-24T11:09:05;34.40;99.90
74822;DHT22;63353;48.702;8.884;2023-08-24T11:11:32;34.60;99.90
74822;DHT22;63353;48.702;8.884;2023-08-24T11:14:18;34.60;99.90
74822;DHT22;63353;48.702;8.884;2023-08-24T11:16:57;34.60;99.90
74822;DHT22;63353;48.702;8.884;2023-08-24T11:20:01;34.60;99.90
74822;DHT22;63353;48.702;8.884;2023-08-24T11:22:29;34.30;99.90
74822;DHT22;63353;48.702;8.884;2023-08-24T11:24:55;34.40;99.90
74822;DHT22;63353;48.702;8.884;2023-08-24T11:27:23;34.10;99.90
74822;DHT22;63353;48.702;8.884;2023-08-24T11:29:58;34.40;99.90
74822;DHT22;63353;48.702;8.884;2023-08-24T11:32:25;34.60;99.90
74822;DHT22;63353;48.702;8.884;2023-08-24T11:35:03;34.70;99.90
74822;DHT22;63353;48.702;8.884;2023-08-24T11:37:28;34.90;99.90
74822;DHT22;63353;48.702;8.884;2023-08-24T11:39:54;34.70;99.90
74822;DHT22;63353;48.702;8.884;2023-08-24T11:42:20;34.80;99.90
74822;DHT22;63353;48.702;8.884;2023-08-24T11:44:47;34.50;99.90
74822;DHT22;63353;48.702;8.884;2023-08-24T11:47:13;34.90;99.90
74822;DHT22;63353;48.702;8.884;2023-08-24T11:49:39;35.10;99.90
74822;DHT22;63353;48.702;8.884;2023-08-24T11:52:06;35.40;99.90
74822;DHT22;63353;48.702;8.884;2023-08-24T11:54:36;35.70;99.90
74822;DHT22;63353;48.702;8.884;2023-08-24T11:57:07;35.70;99.90
74822;DHT22;63353;48.702;8.884;2023-08-24T11:59:35;35.80;99.90
74822;DHT22;63353;48.702;8.884;2023-08-24T12:02:02;36.00;99.90
74822;DHT22;63353;48.702;8.884;2023-08-24T12:04:40;36.40;99.90
74822;DHT22;63353;48.702;8.884;2023-08-24T12:07:11;36.50;99.90
74822;DHT22;63353;48.702;8.884;2023-08-24T12:09:41;36.50;99.90
74822;DHT22;63353;48.702;8.884;2023-08-24T12:12:17;36.40;99.90
74822;DHT22;63353;48.702;8.884;2023-08-24T12:14:45;36.20;99.90
74822;DHT22;63353;48.702;8.884;2023-08-24T12:17:13;35.90;99.90
74822;DHT22;63353;48.702;8.884;2023-08-24T12:19:56;35.80;99.90
74822;DHT22;63353;48.702;8.884;2023-08-24T12:22:22;35.80;99.90
74822;DHT22;63353;48.702;8.884;2023-08-24T12:24:48;35.70;99.90
74822;DHT22;63353;48.702;8.884;2023-08-24T12:27:28;35.90;99.90
74822;DHT22;63353;48.702;8.884;2023-08-24T12:29:54;36.50;99.90
74822;DHT22;63353;48.702;8.884;2023-08-24T12:32:20;36.60;99.90
74822;DHT22;63353;48.702;8.884;2023-08-24T12:34:49;36.80;99.90
74822;DHT22;63353;48.702;8.884;2023-08-24T12:37:17;37.20;99.90
74822;DHT22;63353;48.702;8.884;2023-08-24T12:39:54;37.60;99.90
74822;DHT22;63353;48.702;8.884;2023-08-24T12:42:22;37.40;99.90
74822;DHT22;63353;48.702;8.884;2023-08-24T12:44:54;37.00;99.90
74822;DHT22;63353;48.702;8.884;2023-08-24T12:47:20;36.70;99.90
74822;DHT22;63353;48.702;8.884;2023-08-24T12:49:47;36.40;99.90
74822;DHT22;63353;48.702;8.884;2023-08-24T12:52:18;36.60;99.90
74822;DHT22;63353;48.702;8.884;2023-08-24T12:54:50;36.90;99.90
74822;DHT22;63353;48.702;8.884;2023-08-24T12:57:16;37.50;99.90
74822;DHT22;63353;48.702;8.884;2023-08-24T12:59:41;38.00;99.90
74822;DHT22;63353;48.702;8.884;2023-08-24T13:02:07;38.60;98.50
74822;DHT22;63353;48.702;8.884;2023-08-24T13:04:32;38.50;98.40
74822;DHT22;63353;48.702;8.884;2023-08-24T13:07:02;38.90;98.80
74822;DHT22;63353;48.702;8.884;2023-08-24T13:09:28;38.60;96.90
74822;DHT22;63353;48.702;8.884;2023-08-24T13:11:56;38.30;93.30
74822;DHT22;63353;48.702;8.884;2023-08-24T13:14:25;38.60;94.70
74822;DHT22;63353;48.702;8.884;2023-08-24T13:16:57;38.40;90.80
74822;DHT22;63353;48.702;8.884;2023-08-24T13:19:25;38.30;94.00
74822;DHT22;63353;48.702;8.884;2023-08-24T13:21:51;38.40;92.50
74822;DHT22;63353;48.702;8.884;2023-08-24T13:24:16;38.50;95.40
74822;DHT22;63353;48.702;8.884;2023-08-24T13:26:42;38.40;92.40
74822;DHT22;63353;48.702;8.884;2023-08-24T13:29:08;38.20;94.10
74822;DHT22;63353;48.702;8.884;2023-08-24T13:31:33;37.70;92.10
74822;DHT22;63353;48.702;8.884;2023-08-24T13:34:00;37.10;92.70
74822;DHT22;63353;48.702;8.884;2023-08-24T13:36:26;36.50;94.20
74822;DHT22;63353;48.702;8.884;2023-08-24T13:38:51;36.40;95.60
74822;DHT22;63353;48.702;8.884;2023-08-24T13:41:17;36.10;96.00
74822;DHT22;63353;48.702;8.884;2023-08-24T13:43:43;36.20;95.30
74822;DHT22;63353;48.702;8.884;2023-08-24T13:46:09;37.20;95.50
74822;DHT22;63353;48.702;8.884;2023-08-24T13:48:35;38.10;94.00
74822;DHT22;63353;48.702;8.884;2023-08-24T13:51:04;37.90;93.50
74822;DHT22;63353;48.702;8.884;2023-08-24T13:53:30;38.50;92.30
74822;DHT22;63353;48.702;8.884;2023-08-24T13:55:55;38.50;93.70
74822;DHT22;63353;48.702;8.884;2023-08-24T13:58:21;38.30;93.80
74822;DHT22;63353;48.702;8.884;2023-08-24T14:00:57;37.80;92.60
74822;DHT22;63353;48.702;8.884;2023-08-24T14:03:23;37.40;92.80
74822;DHT22;63353;48.702;8.884;2023-08-24T14:05:55;36.50;93.40
74822;DHT22;63353;48.702;8.884;2023-08-24T14:08:21;35.60;94.40
74822;DHT22;63353;48.702;8.884;2023-08-24T14:10:52;35.00;96.50
74822;DHT22;63353;48.702;8.884;2023-08-24T14:13:21;34.70;96.10
74822;DHT22;63353;48.702;8.884;2023-08-24T14:15:52;34.40;96.60
74822;DHT22;63353;48.702;8.884;2023-08-24T14:18:23;34.20;97.90
74822;DHT22;63353;48.702;8.884;2023-08-24T14:20:52;34.00;98.90
74822;DHT22;63353;48.702;8.884;2023-08-24T14:23:18;33.90;98.80
74822;DHT22;63353;48.702;8.884;2023-08-24T14:25:46;33.70;98.60
74822;DHT22;63353;48.702;8.884;2023-08-24T14:28:12;33.40;99.40
74822;DHT22;63353;48.702;8.884;2023-08-24T14:30:49;33.30;99.90
74822;DHT22;63353;48.702;8.884;2023-08-24T14:33:18;33.10;99.90
74822;DHT22;63353;48.702;8.884;2023-08-24T14:35:51;32.80;99.90
74822;DHT22;63353;48.702;8.884;2023-08-24T14:38:23;32.40;99.90
74822;DHT22;63353;48.702;8.884;2023-08-24T14:40:48;32.10;99.90
74822;DHT22;63353;48.702;8.884;2023-08-24T14:43:14;31.30;99.90
74822;DHT22;63353;48.702;8.884;2023-08-24T14:45:55;30.30;99.90
74822;DHT22;63353;48.702;8.884;2023-08-24T14:48:20;28.90;99.90
74822;DHT22;63353;48.702;8.884;2023-08-24T14:50:46;27.60;99.90
74822;DHT22;63353;48.702;8.884;2023-08-24T14:53:12;26.70;99.90
74822;DHT22;63353;48.702;8.884;2023-08-24T14:55:38;26.00;99.90
74822;DHT22;63353;48.702;8.884;2023-08-24T14:58:04;25.70;99.90
74822;DHT22;63353;48.702;8.884;2023-08-24T15:00:39;25.50;99.90
74822;DHT22;63353;48.702;8.884;2023-08-24T15:03:04;25.30;99.90
74822;DHT22;63353;48.702;8.884;2023-08-24T15:05:44;25.20;99.90
74822;DHT22;63353;48.702;8.884;2023-08-24T15:08:11;25.20;99.90
74822;DHT22;63353;48.702;8.884;2023-08-24T15:10:37;25.10;99.90
74822;DHT22;63353;48.702;8.884;2023-08-24T15:13:04;25.00;99.90
74822;DHT22;63353;48.702;8.884;2023-08-24T15:15:30;25.20;99.90
74822;DHT22;63353;48.702;8.884;2023-08-24T15:17:59;25.50;99.90
74822;DHT22;63353;48.702;8.884;2023-08-24T15:20:25;25.50;99.90
74822;DHT22;63353;48.702;8.884;2023-08-24T15:22:54;25.70;99.90
74822;DHT22;63353;48.702;8.884;2023-08-24T15:25:19;25.70;99.90
74822;DHT22;63353;48.702;8.884;2023-08-24T15:27:47;25.80;99.90
74822;DHT22;63353;48.702;8.884;2023-08-24T15:30:13;25.80;99.90
74822;DHT22;63353;48.702;8.884;2023-08-24T15:32:39;25.60;99.90
74822;DHT22;63353;48.702;8.884;2023-08-24T15:35:08;24.90;99.90
74822;DHT22;63353;48.702;8.884;2023-08-24T15:37:33;24.90;99.90
74822;DHT22;63353;48.702;8.884;2023-08-24T15:39:59;24.70;99.90
74822;DHT22;63353;48.702;8.884;2023-08-24T15:42:34;24.30;99.90
74822;DHT22;63353;48.702;8.884;2023-08-24T15:45:01;24.20;99.90
74822;DHT22;63353;48.702;8.884;2023-08-24T15:47:30;23.90;99.90
74822;DHT22;63353;48.702;8.884;2023-08-24T15:49:56;24.00;99.90